Latest Weather Observations for Frankston Beach

IDV60901

Issued at 3:51 pm EST Monday 20 May 2024 (issued every 10 minutes, with the page automatically refreshed every 10 minutes)

About weather observations | Map of Melbourne area stations | Latest observations for Melbourne area | Other Formats
Station Details ID: 086371 Name: FRANKSTON BEACH Lat: -38.15 Lon: 145.12 Height: 6.0 m
Data from the previous 72 hours. | See also: Recent months at Frankston Beach
Date/Time
EST
Temp
°C
App
Temp
°C
Dew
Point
°C
Rel
Hum
%
Delta-T
°C
Wind Press
QNH
hPa
Press
MSL
hPa
Rain since
9am
mm
Dir  Spd
km/h
Gust
km/h
Spd
kts
Gust
kts
20/03:30pm - - - - - SSW 15 26 8 14 - - -
20/03:00pm - - - - - SSW 19 26 10 14 - - -
20/02:30pm - - - - - SW 17 28 9 15 - - -
20/02:00pm - - - - - SW 17 26 9 14 - - -
20/01:30pm - - - - - SSW 13 19 7 10 - - -
20/01:00pm - - - - - S 11 19 6 10 - - -
20/12:30pm - - - - - S 15 22 8 12 - - -
20/12:00pm - - - - - S 15 24 8 13 - - -
20/11:30am - - - - - SSE 13 22 7 12 - - -
20/11:00am - - - - - SSE 9 15 5 8 - - -
20/10:30am - - - - - SW 9 15 5 8 - - -
20/10:00am - - - - - SSW 11 13 6 7 - - -
20/09:30am - - - - - S 17 26 9 14 - - -
20/09:00am - - - - - SSW 9 15 5 8 - - -
20/08:30am - - - - - S 11 15 6 8 - - -
20/08:00am - - - - - S 7 11 4 6 - - -
20/07:30am - - - - - S 6 9 3 5 - - -
20/07:00am - - - - - CALM 0 7 0 4 - - -
20/06:30am - - - - - SE 9 11 5 6 - - -
20/06:00am - - - - - S 9 11 5 6 - - -
20/05:30am - - - - - S 7 9 4 5 - - -
20/05:00am - - - - - CALM 0 0 0 0 - - -
20/04:30am - - - - - CALM 0 0 0 0 - - -
20/04:00am - - - - - CALM 0 0 0 0 - - -
20/03:30am - - - - - SSW 7 9 4 5 - - -
20/03:00am - - - - - S 7 11 4 6 - - -
20/02:30am - - - - - S 11 15 6 8 - - -
20/02:00am - - - - - SSW 13 19 7 10 - - -
20/01:30am - - - - - SSW 11 15 6 8 - - -
20/01:00am - - - - - SW 9 13 5 7 - - -
20/12:30am - - - - - S 11 24 6 13 - - -
20/12:00am - - - - - S 11 15 6 8 - - -
 
Date/Time
EST
Temp
°C
App
Temp
°C
Dew
Point
°C
Rel
Hum
%
Delta-T
°C
Wind Press
QNH
hPa
Press
MSL
hPa
Rain since
9am
mm
Dir  Spd
km/h
Gust
km/h
Spd
kts
Gust
kts
19/11:30pm - - - - - SSW 11 19 6 10 - - -
19/11:00pm - - - - - S 11 15 6 8 - - -
19/10:30pm - - - - - S 11 17 6 9 - - -
19/10:00pm - - - - - SSW 13 17 7 9 - - -
19/09:30pm - - - - - WSW 19 26 10 14 - - -
19/09:03pm - - - - - SSW 20 39 11 21 - - -
19/09:00pm - - - - - SSW 15 20 8 11 - - -
19/08:30pm - - - - - SSW 17 28 9 15 - - -
19/08:00pm - - - - - SSW 11 17 6 9 - - -
19/07:30pm - - - - - SSW 17 22 9 12 - - -
19/07:06pm - - - - - SW 19 43 10 23 - - -
19/07:00pm - - - - - SW 11 20 6 11 - - -
19/06:30pm - - - - - SSW 13 17 7 9 - - -
19/06:00pm - - - - - SW 22 30 12 16 - - -
19/05:30pm - - - - - SSW 17 30 9 16 - - -
19/05:00pm - - - - - SW 20 32 11 17 - - -
19/04:30pm - - - - - SW 28 37 15 20 - - -
19/04:00pm - - - - - SW 28 33 15 18 - - -
19/03:30pm - - - - - SW 20 26 11 14 - - -
19/03:00pm - - - - - WSW 28 32 15 17 - - -
19/02:30pm - - - - - WSW 30 37 16 20 - - -
19/02:00pm - - - - - WSW 30 39 16 21 - - -
19/01:30pm - - - - - W 32 37 17 20 - - -
19/01:00pm - - - - - W 32 35 17 19 - - -
19/12:30pm - - - - - W 32 37 17 20 - - -
19/12:00pm - - - - - WNW 30 35 16 19 - - -
19/11:30am - - - - - WNW 32 35 17 19 - - -
19/11:00am - - - - - WNW 33 39 18 21 - - -
19/10:30am - - - - - W 30 35 16 19 - - -
19/10:00am - - - - - W 32 37 17 20 - - -
19/09:30am - - - - - WNW 32 37 17 20 - - -
19/09:00am - - - - - WNW 30 35 16 19 - - -
19/08:30am - - - - - WNW 32 37 17 20 - - -
19/08:00am - - - - - WNW 32 37 17 20 - - -
19/07:30am - - - - - WNW 33 39 18 21 - - -
19/07:00am - - - - - WNW 32 39 17 21 - - -
19/06:30am - - - - - WNW 33 39 18 21 - - -
19/06:00am - - - - - WNW 32 37 17 20 - - -
19/05:30am - - - - - WNW 35 39 19 21 - - -
19/05:00am - - - - - WNW 33 37 18 20 - - -
19/04:30am - - - - - W 32 37 17 20 - - -
19/04:00am - - - - - WNW 32 37 17 20 - - -
19/03:30am - - - - - WNW 32 37 17 20 - - -
19/03:00am - - - - - WNW 32 37 17 20 - - -
19/02:30am - - - - - WNW 28 33 15 18 - - -
19/02:00am - - - - - WNW 26 33 14 18 - - -
19/01:30am - - - - - W 26 32 14 17 - - -
19/01:00am - - - - - W 28 33 15 18 - - -
19/12:30am - - - - - W 32 35 17 19 - - -
19/12:00am - - - - - W 30 33 16 18 - - -
 
Date/Time
EST
Temp
°C
App
Temp
°C
Dew
Point
°C
Rel
Hum
%
Delta-T
°C
Wind Press
QNH
hPa
Press
MSL
hPa
Rain since
9am
mm
Dir  Spd
km/h
Gust
km/h
Spd
kts
Gust
kts
18/11:30pm - - - - - W 24 30 13 16 - - -
18/11:00pm - - - - - WSW 24 30 13 16 - - -
18/10:30pm - - - - - E 9 13 5 7 - - -
18/10:00pm - - - - - ESE 6 11 3 6 - - -
18/09:30pm - - - - - ESE 2 7 1 4 - - -
18/09:00pm - - - - - CALM 0 0 0 0 - - -
18/08:30pm - - - - - SSE 9 11 5 6 - - -
18/08:00pm - - - - - ESE 4 7 2 4 - - -
18/07:30pm - - - - - SE 9 11 5 6 - - -
18/07:00pm - - - - - SE 9 11 5 6 - - -
18/06:30pm - - - - - SSE 11 11 6 6 - - -
18/06:00pm - - - - - SSE 11 11 6 6 - - -
18/05:30pm - - - - - SSE 7 9 4 5 - - -
18/05:00pm - - - - - SSE 7 11 4 6 - - -
18/04:30pm - - - - - SSE 9 13 5 7 - - -
18/04:00pm - - - - - SSE 11 17 6 9 - - -
18/03:30pm - - - - - SSW 11 17 6 9 - - -
18/03:00pm - - - - - SSE 7 13 4 7 - - -
18/02:30pm - - - - - SSE 11 15 6 8 - - -
18/02:00pm - - - - - SSE 6 11 3 6 - - -
18/01:30pm - - - - - ESE 9 35 5 19 - - -
18/01:00pm - - - - - S 11 17 6 9 - - -
18/12:30pm - - - - - SSE 9 17 5 9 - - -
18/12:00pm - - - - - ESE 13 20 7 11 - - -
18/11:30am - - - - - SE 13 20 7 11 - - -
18/11:00am - - - - - SE 15 26 8 14 - - -
18/10:30am - - - - - ESE 15 26 8 14 - - -
18/10:00am - - - - - SE 15 22 8 12 - - -
18/09:30am - - - - - ESE 11 15 6 8 - - -
18/09:00am - - - - - ESE 7 11 4 6 - - -
18/08:30am - - - - - ESE 4 9 2 5 - - -
18/08:00am - - - - - S 6 7 3 4 - - -
18/07:30am - - - - - SSE 4 7 2 4 - - -
18/07:00am - - - - - SE 7 7 4 4 - - -
18/06:30am - - - - - S 9 13 5 7 - - -
18/06:00am - - - - - S 7 11 4 6 - - -
18/05:30am - - - - - SSW 9 11 5 6 - - -
18/05:00am - - - - - SSW 11 13 6 7 - - -
18/04:30am - - - - - SSW 9 13 5 7 - - -
18/04:00am - - - - - SSW 7 9 4 5 - - -
18/03:30am - - - - - SSW 9 9 5 5 - - -
18/03:00am - - - - - S 6 11 3 6 - - -
18/02:30am - - - - - S 9 15 5 8 - - -
18/02:00am - - - - - S 11 22 6 12 - - -
18/01:30am - - - - - S 7 15 4 8 - - -
18/01:00am - - - - - S 9 15 5 8 - - -
18/12:30am - - - - - SSE 9 13 5 7 - - -
18/12:00am - - - - - SSE 9 15 5 8 - - -
 
Date/Time
EST
Temp
°C
App
Temp
°C
Dew
Point
°C
Rel
Hum
%
Delta-T
°C
Wind Press
QNH
hPa
Press
MSL
hPa
Rain since
9am
mm
Dir  Spd
km/h
Gust
km/h
Spd
kts
Gust
kts
17/11:30pm - - - - - SSW 9 11 5 6 - - -
17/11:00pm - - - - - S 9 13 5 7 - - -
17/10:30pm - - - - - S 13 22 7 12 - - -
17/10:00pm - - - - - SSE 13 26 7 14 - - -
17/09:30pm - - - - - S 9 20 5 11 - - -
17/09:00pm - - - - - SSW 13 19 7 10 - - -
17/08:30pm - - - - - SSW 17 24 9 13 - - -
17/08:00pm - - - - - SSW 17 26 9 14 - - -
17/07:30pm - - - - - SW 20 28 11 15 - - -
17/07:00pm - - - - - SSW 15 20 8 11 - - -
17/06:30pm - - - - - SSW 11 17 6 9 - - -
17/06:00pm - - - - - S 9 13 5 7 - - -
17/05:30pm - - - - - SSW 7 11 4 6 - - -
17/05:00pm - - - - - SSW 13 19 7 10 - - -
17/04:30pm - - - - - SSW 17 26 9 14 - - -
17/04:00pm - - - - - SSW 19 30 10 16 - - -

Latest Capital City Observations: Canberra | Sydney | Melbourne | Brisbane | Adelaide | Perth | Hobart | Darwin

Other formats

Comma delimited format used in spreadsheet applications
http://www.bom.gov.au/fwo/IDV60901/IDV60901.94871.axf

JavaScript Object Notation format (JSON) in row-major order
http://www.bom.gov.au/fwo/IDV60901/IDV60901.94871.json

Data quality

Most of these data are generated automatically and are frequently updated. Quality checks on data are not normally performed. It is possible for incorrect values to appear. Refer to information at About Latest Weather Observations and please check the disclaimer before using these data.